createdAt,value
2017-01-20T00:00:07.922Z,69.06
2017-01-20T00:01:08.157Z,68.72
2017-01-20T00:02:08.423Z,68.37
2017-01-20T00:03:08.950Z,69.96
2017-01-20T00:04:07.442Z,69.35
2017-01-20T00:05:08.824Z,69.27
2017-01-20T00:06:08.731Z,68.66
2017-01-20T00:07:08.269Z,70.00
2017-01-20T00:08:08.073Z,69.43
2017-01-20T00:09:07.637Z,68.91
2017-01-20T00:10:08.463Z,68.79
2017-01-20T00:11:08.224Z,69.34
2017-01-20T00:12:07.809Z,69.05
2017-01-20T00:13:07.502Z,68.79
2017-01-20T00:14:08.055Z,69.67
2017-01-20T00:15:07.617Z,69.39
2017-01-20T00:16:08.327Z,69.32
2017-01-20T00:17:08.070Z,68.79
2017-01-20T00:18:07.807Z,68.60
2017-01-20T00:19:08.603Z,68.74
2017-01-20T00:20:08.337Z,68.65
2017-01-20T00:21:08.137Z,68.95
2017-01-20T00:22:08.385Z,69.50
2017-01-20T00:23:08.387Z,70.72
2017-01-20T00:24:08.129Z,70.16
2017-01-20T00:25:07.918Z,69.86
2017-01-20T00:26:08.554Z,69.89
2017-01-20T00:27:08.110Z,70.45
2017-01-20T00:28:07.677Z,70.47
2017-01-20T00:29:08.221Z,70.36
2017-01-20T00:30:08.418Z,68.58
2017-01-20T00:31:07.926Z,68.32
2017-01-20T00:32:08.560Z,68.53
2017-01-20T00:33:08.520Z,68.33
2017-01-20T00:34:08.217Z,68.21
2017-01-20T00:35:08.001Z,68.71
2017-01-20T00:36:07.528Z,69.00
2017-01-20T00:37:08.127Z,69.70
2017-01-20T00:38:08.002Z,69.88
2017-01-20T00:39:07.657Z,69.22
2017-01-20T00:40:08.275Z,68.26
2017-01-20T00:41:08.034Z,68.31
2017-01-20T00:42:07.662Z,68.15
2017-01-20T00:43:08.183Z,68.95
2017-01-20T00:44:07.679Z,69.11
2017-01-20T00:45:08.238Z,69.62
2017-01-20T00:46:08.020Z,69.43
2017-01-20T00:47:07.577Z,68.87
2017-01-20T00:48:08.329Z,68.15
2017-01-20T00:49:07.831Z,68.38
2017-01-20T00:50:08.686Z,69.02
2017-01-20T00:51:08.338Z,69.41
2017-01-20T00:52:08.149Z,69.24
2017-01-20T00:53:07.709Z,69.42
2017-01-20T00:54:08.536Z,69.12
2017-01-20T00:55:08.129Z,69.36
2017-01-20T00:56:07.664Z,68.67
2017-01-20T00:57:08.399Z,68.37
2017-01-20T00:58:07.928Z,67.80
2017-01-20T00:59:07.759Z,67.88
2017-01-20T01:00:08.374Z,68.09
2017-01-20T01:01:08.234Z,67.98
2017-01-20T01:02:07.775Z,68.82
2017-01-20T01:03:09.169Z,69.15
2017-01-20T01:04:08.043Z,68.88
2017-01-20T01:05:08.647Z,68.28
2017-01-20T01:06:08.474Z,67.84
2017-01-20T01:07:08.130Z,67.83
2017-01-20T01:08:07.733Z,67.85
2017-01-20T01:09:08.604Z,68.42
2017-01-20T01:10:08.466Z,68.47
2017-01-20T01:11:27.854Z,68.23
2017-01-20T01:12:08.541Z,67.47
2017-01-20T01:13:08.302Z,68.05
2017-01-20T01:14:07.849Z,68.38
2017-01-20T01:15:35.080Z,67.98
2017-01-20T01:16:07.779Z,67.40
2017-01-20T01:17:08.048Z,67.98
2017-01-20T01:18:07.820Z,68.31
2017-01-20T01:19:08.177Z,69.05
2017-01-20T01:20:07.886Z,68.66
2017-01-20T01:21:08.530Z,68.28
2017-01-20T01:22:08.032Z,68.75
2017-01-20T01:23:07.980Z,67.71
2017-01-20T01:24:07.523Z,68.26
2017-01-20T01:25:08.292Z,68.94
2017-01-20T01:26:07.794Z,68.19
2017-01-20T01:27:08.568Z,67.25
2017-01-20T01:28:08.536Z,66.39
2017-01-20T01:29:07.998Z,67.43
2017-01-20T01:30:07.752Z,67.60
2017-01-20T01:31:08.212Z,67.80
2017-01-20T01:32:08.077Z,68.52
2017-01-20T01:33:07.910Z,69.66
2017-01-20T01:34:08.471Z,69.22
2017-01-20T01:35:08.249Z,68.79
2017-01-20T01:36:07.986Z,69.32
2017-01-20T01:37:07.658Z,68.78
2017-01-20T01:38:08.216Z,70.22
2017-01-20T01:39:07.789Z,69.84
2017-01-20T01:40:08.404Z,69.92
2017-01-20T01:41:08.011Z,69.16
2017-01-20T01:42:07.778Z,68.58
2017-01-20T01:43:08.525Z,68.37
2017-01-20T01:44:08.337Z,68.72
2017-01-20T01:45:07.890Z,67.83
2017-01-20T01:46:08.497Z,67.84
2017-01-20T01:47:08.114Z,68.85
2017-01-20T01:48:07.993Z,67.88
2017-01-20T01:49:07.631Z,68.31
2017-01-20T01:50:07.591Z,69.29
2017-01-20T01:51:09.022Z,69.95
2017-01-20T01:52:07.750Z,69.95
2017-01-20T01:53:07.959Z,69.35
2017-01-20T01:54:08.749Z,69.21
2017-01-20T01:55:08.605Z,69.18
2017-01-20T01:56:08.205Z,69.06
2017-01-20T01:57:08.045Z,69.38
2017-01-20T01:58:07.799Z,69.76
2017-01-20T01:59:09.129Z,69.08
2017-01-20T02:00:08.012Z,68.04
2017-01-20T02:01:07.633Z,67.84
2017-01-20T02:02:08.388Z,68.83
2017-01-20T02:03:08.001Z,69.24
2017-01-20T02:04:08.152Z,69.07
2017-01-20T02:05:07.724Z,68.68
2017-01-20T02:06:08.479Z,68.12
2017-01-20T02:07:08.291Z,68.82
2017-01-20T02:08:07.838Z,69.95
2017-01-20T02:09:08.052Z,69.51
2017-01-20T02:10:07.833Z,68.57
2017-01-20T02:11:08.395Z,68.31
2017-01-20T02:12:07.978Z,68.39
2017-01-20T02:13:08.780Z,68.62
2017-01-20T02:14:08.684Z,68.83
2017-01-20T02:15:08.259Z,69.22
2017-01-20T02:16:08.654Z,69.17
2017-01-20T02:17:08.323Z,68.32
2017-01-20T02:18:08.017Z,69.41
2017-01-20T02:19:08.353Z,68.70
2017-01-20T02:20:08.111Z,67.06
2017-01-20T02:21:07.694Z,66.03
2017-01-20T02:22:08.282Z,65.87
2017-01-20T02:24:07.350Z,68.68
2017-01-20T02:25:08.111Z,69.09
2017-01-20T02:26:07.840Z,68.95
2017-01-20T02:27:08.602Z,69.21
2017-01-20T02:28:09.353Z,68.88
2017-01-20T02:29:07.846Z,68.65
2017-01-20T02:30:08.472Z,68.60
2017-01-20T02:31:08.005Z,68.14
2017-01-20T02:32:07.515Z,69.26
2017-01-20T02:33:08.228Z,69.59
2017-01-20T02:34:08.416Z,69.29
2017-01-20T02:35:08.159Z,69.82
2017-01-20T02:36:08.373Z,70.10
2017-01-20T02:37:08.241Z,69.46
2017-01-20T02:38:07.872Z,69.57
2017-01-20T02:39:08.269Z,68.76
2017-01-20T02:40:08.004Z,68.63
2017-01-20T02:41:07.602Z,68.47
2017-01-20T02:42:09.246Z,69.65
2017-01-20T02:43:07.737Z,70.73
2017-01-20T02:44:08.284Z,70.25
2017-01-20T02:45:07.783Z,70.23
2017-01-20T02:46:08.664Z,70.27
2017-01-20T02:47:08.175Z,70.67
2017-01-20T02:48:07.979Z,71.11
2017-01-20T02:49:07.473Z,71.23
2017-01-20T02:50:08.282Z,69.95
2017-01-20T02:51:07.733Z,70.42
2017-01-20T02:52:08.322Z,70.14
2017-01-20T02:53:07.923Z,69.10
2017-01-20T02:54:07.473Z,68.54
2017-01-20T02:55:08.010Z,69.44
2017-01-20T02:56:08.235Z,69.64
2017-01-20T02:57:07.883Z,69.57
2017-01-20T02:58:08.945Z,68.93
2017-01-20T02:59:08.565Z,69.09
2017-01-20T03:00:08.122Z,68.44
2017-01-20T03:01:07.904Z,68.20
2017-01-20T03:02:08.405Z,68.42
2017-01-20T03:03:07.983Z,68.73
2017-01-20T03:04:07.418Z,68.74
2017-01-20T03:05:07.919Z,67.98
2017-01-20T03:06:07.635Z,68.63
2017-01-20T03:07:08.558Z,69.34
2017-01-20T03:08:08.155Z,69.74
2017-01-20T03:09:07.687Z,70.59
2017-01-20T03:10:08.520Z,70.18
2017-01-20T03:11:09.058Z,70.19
2017-01-20T03:12:07.592Z,69.76
2017-01-20T03:13:08.293Z,69.09
2017-01-20T03:14:08.213Z,69.29
2017-01-20T03:15:07.741Z,69.35
2017-01-20T03:16:08.430Z,68.81
2017-01-20T03:17:08.312Z,69.25
2017-01-20T03:18:08.155Z,68.98
2017-01-20T03:19:07.817Z,68.78
2017-01-20T03:20:07.914Z,67.92
2017-01-20T03:21:08.689Z,68.45
2017-01-20T03:22:08.204Z,69.31
2017-01-20T03:23:07.723Z,69.02
2017-01-20T03:24:08.073Z,69.82
2017-01-20T03:25:07.665Z,68.35
2017-01-20T03:26:08.424Z,67.96
2017-01-20T03:27:08.044Z,68.45
2017-01-20T03:28:07.483Z,67.80
2017-01-20T03:29:08.204Z,68.90
2017-01-20T03:30:08.105Z,70.37
2017-01-20T03:31:07.664Z,69.70
2017-01-20T03:32:08.307Z,69.12
2017-01-20T03:33:08.096Z,68.17
2017-01-20T03:34:07.756Z,68.21
2017-01-20T03:35:08.254Z,68.60
2017-01-20T03:36:07.976Z,68.25
2017-01-20T03:37:07.414Z,68.82
2017-01-20T03:38:08.305Z,68.42
2017-01-20T03:39:07.945Z,67.65
2017-01-20T03:40:07.845Z,66.78
2017-01-20T03:41:08.333Z,67.73
2017-01-20T03:42:08.095Z,67.83
2017-01-20T03:43:07.919Z,68.06
2017-01-20T03:44:07.729Z,68.26
2017-01-20T03:45:08.528Z,69.11
2017-01-20T03:46:08.082Z,68.27
2017-01-20T03:47:07.566Z,68.70
2017-01-20T03:48:08.084Z,69.45
2017-01-20T03:49:07.844Z,68.25
2017-01-20T03:50:09.019Z,68.33
2017-01-20T03:51:07.856Z,68.08
2017-01-20T03:52:08.620Z,68.90
2017-01-20T03:53:08.205Z,68.16
2017-01-20T03:54:07.749Z,68.60
2017-01-20T03:55:08.340Z,68.47
2017-01-20T03:56:08.121Z,67.76
2017-01-20T03:57:07.660Z,67.83
2017-01-20T03:58:08.233Z,68.03
2017-01-20T03:59:07.722Z,67.75
2017-01-20T04:00:32.758Z,67.42
2017-01-20T04:01:08.621Z,67.70
2017-01-20T04:02:08.132Z,67.51
2017-01-20T04:03:07.953Z,67.87
2017-01-20T04:04:07.572Z,66.72
2017-01-20T04:05:08.155Z,67.40
2017-01-20T04:06:07.628Z,67.58
2017-01-20T04:07:08.128Z,68.68
2017-01-20T04:08:07.903Z,69.11
2017-01-20T04:09:08.504Z,68.41
2017-01-20T04:10:08.365Z,67.82
2017-01-20T04:11:08.153Z,67.25
2017-01-20T04:12:08.020Z,66.74
2017-01-20T04:13:17.439Z,67.17
2017-01-20T04:14:07.909Z,68.32
2017-01-20T04:15:08.475Z,68.67
2017-01-20T04:16:08.048Z,68.37
2017-01-20T04:17:07.762Z,68.78
2017-01-20T04:18:08.374Z,67.80
2017-01-20T04:19:07.877Z,67.41
2017-01-20T04:20:09.000Z,66.97
2017-01-20T04:21:07.834Z,67.16
2017-01-20T04:22:08.392Z,66.40
2017-01-20T04:23:08.022Z,67.10
2017-01-20T04:24:07.523Z,67.05
2017-01-20T04:25:08.109Z,66.39
2017-01-20T04:26:07.607Z,67.49
2017-01-20T04:27:08.190Z,67.19
2017-01-20T04:28:07.875Z,67.06
2017-01-20T04:29:08.285Z,67.17
2017-01-20T04:30:07.876Z,66.99
2017-01-20T04:31:09.038Z,66.74
2017-01-20T04:32:07.605Z,67.16
2017-01-20T04:33:08.170Z,68.05
2017-01-20T04:34:07.966Z,68.72
2017-01-20T04:35:07.503Z,68.66
2017-01-20T04:36:07.994Z,67.98
2017-01-20T04:37:07.528Z,68.60
2017-01-20T04:38:08.074Z,68.32
2017-01-20T04:39:07.547Z,68.04
2017-01-20T04:40:08.109Z,68.46
2017-01-20T04:41:07.633Z,67.19
2017-01-20T04:42:08.086Z,66.75
2017-01-20T04:43:08.052Z,67.01
2017-01-20T04:44:07.633Z,67.13
2017-01-20T04:45:08.248Z,67.18
2017-01-20T04:46:07.841Z,67.62
2017-01-20T04:47:08.506Z,67.16
2017-01-20T04:48:08.096Z,67.32
2017-01-20T04:49:07.586Z,67.33
2017-01-20T04:50:08.201Z,66.89
2017-01-20T04:51:07.771Z,67.84
2017-01-20T04:52:08.456Z,67.44
2017-01-20T04:53:08.023Z,67.39
2017-01-20T04:54:07.825Z,67.71
2017-01-20T04:55:08.493Z,68.20
2017-01-20T04:56:08.221Z,67.52
2017-01-20T04:57:07.799Z,68.29
2017-01-20T04:58:08.340Z,67.64
2017-01-20T04:59:07.897Z,67.66
2017-01-20T05:00:08.382Z,68.17
2017-01-20T05:01:07.902Z,67.95
2017-01-20T05:02:08.369Z,67.22
2017-01-20T05:03:07.981Z,66.81
2017-01-20T05:04:07.822Z,67.84
2017-01-20T05:05:08.594Z,67.30
2017-01-20T05:06:08.148Z,67.33
2017-01-20T05:07:07.612Z,67.44
2017-01-20T05:08:08.255Z,67.67
2017-01-20T05:09:07.816Z,67.80
2017-01-20T05:10:08.374Z,67.51
2017-01-20T05:11:07.855Z,66.92
2017-01-20T05:12:09.005Z,67.93
2017-01-20T05:13:07.712Z,66.59
2017-01-20T05:14:08.028Z,66.50
2017-01-20T05:15:07.854Z,67.60
2017-01-20T05:16:08.434Z,66.85
2017-01-20T05:17:08.026Z,67.46
2017-01-20T05:18:07.894Z,68.02
2017-01-20T05:19:08.425Z,67.44
2017-01-20T05:20:07.943Z,66.47
2017-01-20T05:21:07.426Z,66.42
2017-01-20T05:22:26.773Z,67.54
2017-01-20T05:23:08.416Z,66.30
2017-01-20T05:24:08.199Z,66.99
2017-01-20T05:25:10.708Z,67.60
2017-01-20T05:26:08.322Z,67.58
2017-01-20T05:27:08.218Z,67.03
2017-01-20T05:28:08.069Z,66.81
2017-01-20T05:29:07.583Z,67.14
2017-01-20T05:30:08.240Z,66.12
2017-01-20T05:31:07.763Z,65.76
2017-01-20T05:32:09.042Z,66.82
2017-01-20T05:33:07.598Z,66.92
2017-01-20T05:34:08.160Z,67.72
2017-01-20T05:35:08.160Z,67.62
2017-01-20T05:36:07.716Z,68.74
2017-01-20T05:37:08.293Z,69.14
2017-01-20T05:38:07.763Z,67.76
2017-01-20T05:39:08.299Z,66.27
2017-01-20T05:40:07.921Z,65.77
2017-01-20T05:41:08.430Z,66.18
2017-01-20T05:42:07.941Z,66.24
2017-01-20T05:43:07.699Z,66.38
2017-01-20T05:44:08.394Z,65.94
2017-01-20T05:45:08.014Z,66.08
2017-01-20T05:46:07.514Z,66.35
2017-01-20T05:47:08.265Z,66.61
2017-01-20T05:48:07.830Z,66.25
2017-01-20T05:49:08.269Z,66.84
2017-01-20T05:50:07.817Z,66.49
2017-01-20T05:51:08.342Z,66.11
2017-01-20T05:52:08.053Z,66.27
2017-01-20T05:53:07.555Z,66.42
2017-01-20T05:54:08.363Z,66.32
2017-01-20T05:55:07.850Z,66.56
2017-01-20T05:56:08.712Z,66.83
2017-01-20T05:57:08.255Z,67.16
2017-01-20T05:58:08.165Z,67.33
2017-01-20T05:59:07.769Z,66.89
2017-01-20T06:00:08.324Z,67.05
2017-01-20T06:01:07.847Z,68.28
2017-01-20T06:02:08.358Z,68.13
2017-01-20T06:03:08.235Z,68.19
2017-01-20T06:04:08.228Z,67.94
2017-01-20T06:05:08.094Z,67.15
2017-01-20T06:06:07.690Z,67.34
2017-01-20T06:07:08.384Z,66.49
2017-01-20T06:08:07.944Z,66.21
2017-01-20T06:09:08.498Z,67.68
2017-01-20T06:10:08.085Z,67.78
2017-01-20T06:11:07.634Z,68.35
2017-01-20T06:12:08.145Z,68.16
2017-01-20T06:13:07.758Z,67.45
2017-01-20T06:14:08.619Z,67.42
2017-01-20T06:15:08.456Z,68.25
2017-01-20T06:16:08.227Z,67.94
2017-01-20T06:17:07.877Z,67.92
2017-01-20T06:18:08.563Z,67.86
2017-01-20T06:19:08.171Z,67.82
2017-01-20T06:20:07.769Z,67.75
2017-01-20T06:21:08.255Z,67.71
2017-01-20T06:22:07.741Z,68.29
2017-01-20T06:23:08.307Z,68.30
2017-01-20T06:24:08.247Z,67.35
2017-01-20T06:25:07.727Z,66.56
2017-01-20T06:26:08.346Z,66.76
2017-01-20T06:27:08.074Z,67.74
2017-01-20T06:28:07.737Z,67.04
2017-01-20T06:29:08.549Z,67.33
2017-01-20T06:30:08.129Z,67.26
2017-01-20T06:31:07.997Z,67.52
2017-01-20T06:32:07.451Z,67.21
2017-01-20T06:33:07.982Z,67.24
2017-01-20T06:34:07.577Z,67.64
2017-01-20T06:35:08.012Z,68.13
2017-01-20T06:36:07.488Z,66.81
2017-01-20T06:37:08.235Z,66.99
2017-01-20T06:38:07.746Z,66.94
2017-01-20T06:39:08.467Z,67.42
2017-01-20T06:40:08.084Z,67.76
2017-01-20T06:41:07.542Z,67.71
2017-01-20T06:42:34.181Z,67.15
2017-01-20T06:43:07.780Z,66.80
2017-01-20T06:44:08.355Z,66.55
2017-01-20T06:45:07.850Z,65.84
2017-01-20T06:47:07.462Z,66.60
2017-01-20T06:48:08.246Z,66.93
2017-01-20T06:49:07.996Z,68.03
2017-01-20T06:50:07.522Z,68.14
2017-01-20T06:51:08.113Z,67.64
2017-01-20T06:52:07.610Z,67.49
2017-01-20T06:53:09.149Z,69.47
2017-01-20T06:54:07.653Z,70.05
2017-01-20T06:55:08.209Z,70.74
2017-01-20T06:56:07.962Z,71.08
2017-01-20T06:57:07.431Z,71.18
2017-01-20T06:58:08.092Z,73.63
2017-01-20T06:59:07.862Z,74.99
2017-01-20T07:00:08.425Z,75.05
2017-01-20T07:01:08.126Z,75.97
2017-01-20T07:02:07.698Z,75.85
2017-01-20T07:03:08.272Z,76.91
2017-01-20T07:04:07.821Z,76.93
2017-01-20T07:05:08.380Z,76.11
2017-01-20T07:06:07.822Z,76.58
2017-01-20T07:07:08.482Z,76.00
2017-01-20T07:08:08.027Z,76.98
2017-01-20T07:09:07.930Z,76.98
2017-01-20T07:10:08.498Z,77.50
2017-01-20T07:11:08.040Z,76.91
2017-01-20T07:12:07.531Z,76.19
2017-01-20T07:13:08.318Z,76.70
2017-01-20T07:14:07.927Z,76.02
2017-01-20T07:15:09.014Z,76.76
2017-01-20T07:16:07.565Z,76.27
2017-01-20T07:17:08.210Z,75.72
2017-01-20T07:18:07.718Z,74.58
2017-01-20T07:19:08.467Z,73.76
2017-01-20T07:20:08.050Z,74.39
2017-01-20T07:21:07.824Z,73.77
2017-01-20T07:22:08.288Z,73.55
2017-01-20T07:23:08.329Z,74.82
2017-01-20T07:24:07.887Z,74.00
2017-01-20T07:25:09.005Z,74.12
2017-01-20T07:26:07.653Z,73.32
2017-01-20T07:27:08.252Z,73.46
2017-01-20T07:28:07.718Z,72.97
2017-01-20T07:29:08.425Z,72.76
2017-01-20T07:30:08.304Z,71.72
2017-01-20T07:31:08.144Z,72.81
2017-01-20T07:32:07.890Z,72.61
2017-01-20T07:33:08.414Z,72.30
2017-01-20T07:34:08.089Z,71.49
2017-01-20T07:35:07.600Z,72.21
2017-01-20T07:36:08.117Z,72.13
2017-01-20T07:37:07.607Z,71.70
2017-01-20T07:38:08.116Z,70.89
2017-01-20T07:39:07.654Z,71.23
2017-01-20T07:40:08.377Z,71.19
2017-01-20T07:41:07.956Z,70.60
2017-01-20T07:42:07.598Z,70.92
2017-01-20T07:43:08.186Z,70.88
2017-01-20T07:44:07.673Z,71.64
2017-01-20T07:45:08.646Z,70.83
2017-01-20T07:46:08.506Z,71.06
2017-01-20T07:47:07.926Z,71.01
2017-01-20T07:48:07.936Z,72.04
2017-01-20T07:49:08.595Z,72.22
2017-01-20T07:50:08.203Z,72.12
2017-01-20T07:51:07.744Z,72.36
2017-01-20T07:52:08.320Z,72.25
2017-01-20T07:53:08.101Z,72.63
2017-01-20T07:54:07.873Z,72.33
2017-01-20T07:55:08.850Z,72.12
2017-01-20T07:56:09.024Z,71.60
2017-01-20T07:57:07.874Z,71.41
2017-01-20T07:58:08.409Z,70.84
2017-01-20T07:59:07.864Z,71.64
2017-01-20T08:00:08.492Z,71.17
2017-01-20T08:01:07.924Z,71.98
2017-01-20T08:02:08.472Z,71.26
2017-01-20T08:03:08.028Z,70.99
2017-01-20T08:04:07.794Z,71.72
2017-01-20T08:05:08.607Z,72.04
2017-01-20T08:06:08.980Z,71.67
2017-01-20T08:07:07.808Z,71.17
2017-01-20T08:08:08.334Z,71.70
2017-01-20T08:09:07.827Z,72.26
2017-01-20T08:10:08.459Z,72.21
2017-01-20T08:12:08.402Z,71.52
2017-01-20T08:13:08.213Z,71.67
2017-01-20T08:14:07.741Z,71.14
2017-01-20T08:15:08.341Z,71.68
2017-01-20T08:16:08.061Z,71.76
2017-01-20T08:17:08.108Z,71.65
2017-01-20T08:18:07.908Z,71.47
2017-01-20T08:19:08.469Z,71.66
2017-01-20T08:20:08.041Z,70.86
2017-01-20T08:21:07.695Z,72.55
2017-01-20T08:22:08.199Z,72.35
2017-01-20T08:23:07.819Z,72.42
2017-01-20T08:24:07.949Z,72.72
2017-01-20T08:25:07.695Z,72.97
2017-01-20T08:26:08.048Z,71.92
2017-01-20T08:27:08.475Z,72.24
2017-01-20T08:28:08.376Z,72.28
2017-01-20T08:29:08.016Z,72.79
2017-01-20T08:30:07.467Z,72.97
2017-01-20T08:31:08.034Z,73.46
2017-01-20T08:32:07.566Z,73.91
2017-01-20T08:33:08.116Z,73.84
2017-01-20T08:34:07.925Z,73.15
2017-01-20T08:35:08.437Z,73.50
2017-01-20T08:36:08.215Z,73.12
2017-01-20T08:37:08.049Z,72.65
2017-01-20T08:38:07.584Z,71.84
2017-01-20T08:39:08.151Z,71.99
2017-01-20T08:40:17.584Z,71.96
2017-01-20T08:41:08.183Z,72.41
2017-01-20T08:42:07.654Z,72.46
2017-01-20T08:43:08.272Z,71.60
2017-01-20T08:44:07.863Z,71.51
2017-01-20T08:45:08.422Z,71.34
2017-01-20T08:46:08.201Z,71.76
2017-01-20T08:47:07.814Z,71.69
2017-01-20T08:48:08.008Z,71.28
2017-01-20T08:49:07.539Z,70.97
2017-01-20T08:50:08.119Z,71.81
2017-01-20T08:51:07.702Z,72.50
2017-01-20T08:52:08.246Z,71.58
2017-01-20T08:53:07.920Z,70.87
2017-01-20T08:54:07.517Z,71.10
2017-01-20T08:55:08.070Z,71.09
2017-01-20T08:56:07.896Z,71.33
2017-01-20T08:57:09.002Z,70.77
2017-01-20T08:58:07.655Z,71.04
2017-01-20T08:59:08.480Z,71.49
2017-01-20T09:00:07.965Z,70.96
2017-01-20T09:01:07.472Z,70.40
2017-01-20T09:02:07.955Z,69.62
2017-01-20T09:03:07.459Z,70.45
2017-01-20T09:04:08.047Z,70.59
2017-01-20T09:05:07.542Z,70.43
2017-01-20T09:06:08.149Z,69.89
2017-01-20T09:07:07.765Z,70.30
2017-01-20T09:08:07.933Z,69.34
2017-01-20T09:09:07.412Z,70.01
2017-01-20T09:10:07.981Z,70.53
2017-01-20T09:11:07.658Z,70.00
2017-01-20T09:12:08.171Z,70.53
2017-01-20T09:13:07.792Z,70.52
2017-01-20T09:14:08.358Z,71.12
2017-01-20T09:15:07.861Z,70.96
2017-01-20T09:16:08.465Z,70.56
2017-01-20T09:17:08.109Z,70.59
2017-01-20T09:18:07.705Z,70.92
2017-01-20T09:19:07.772Z,70.50
2017-01-20T09:20:08.332Z,70.59
2017-01-20T09:21:07.868Z,71.43
2017-01-20T09:22:08.434Z,70.97
2017-01-20T09:23:07.882Z,70.67
2017-01-20T09:24:08.394Z,69.91
2017-01-20T09:25:07.901Z,70.44
2017-01-20T09:26:08.466Z,70.66
2017-01-20T09:27:08.001Z,70.72
2017-01-20T09:28:07.999Z,70.70
2017-01-20T09:29:07.525Z,70.52
2017-01-20T09:30:08.096Z,69.51
2017-01-20T09:31:07.849Z,70.27
2017-01-20T09:32:08.457Z,71.12
2017-01-20T09:33:07.983Z,71.38
2017-01-20T09:34:07.514Z,71.05
2017-01-20T09:35:08.066Z,69.66
2017-01-20T09:36:07.584Z,68.88
2017-01-20T09:37:08.431Z,69.90
2017-01-20T09:38:07.902Z,69.79
2017-01-20T09:39:08.411Z,69.56
2017-01-20T09:40:08.337Z,69.40
2017-01-20T09:41:07.895Z,69.80
2017-01-20T09:42:08.498Z,68.90
2017-01-20T09:43:08.040Z,68.55
2017-01-20T09:44:07.904Z,69.48
2017-01-20T09:45:08.500Z,69.30
2017-01-20T09:46:08.092Z,69.43
2017-01-20T09:47:07.587Z,69.10
2017-01-20T09:48:08.168Z,69.12
2017-01-20T09:49:07.997Z,68.84
2017-01-20T09:50:07.449Z,68.83
2017-01-20T09:51:07.949Z,68.72
2017-01-20T09:52:07.772Z,68.49
2017-01-20T09:53:08.388Z,68.40
2017-01-20T09:54:07.987Z,67.97
2017-01-20T09:55:07.482Z,67.81
2017-01-20T09:56:08.043Z,68.52
2017-01-20T09:57:07.530Z,68.62
2017-01-20T09:58:08.017Z,68.90
2017-01-20T09:59:08.290Z,68.15
2017-01-20T10:00:07.931Z,67.97
2017-01-20T10:01:07.652Z,68.15
2017-01-20T10:02:08.434Z,67.82
2017-01-20T10:03:08.006Z,68.16
2017-01-20T10:04:07.595Z,68.33
2017-01-20T10:05:08.096Z,67.86
2017-01-20T10:06:07.641Z,67.85
2017-01-20T10:07:08.273Z,67.60
2017-01-20T10:08:07.833Z,68.06
2017-01-20T10:09:08.316Z,67.77
2017-01-20T10:10:07.813Z,67.41
2017-01-20T10:11:08.380Z,67.38
2017-01-20T10:12:08.201Z,67.08
2017-01-20T10:13:07.872Z,67.25
2017-01-20T10:14:08.348Z,67.17
2017-01-20T10:15:07.866Z,67.68
2017-01-20T10:16:08.390Z,67.33
2017-01-20T10:17:08.112Z,66.87
2017-01-20T10:18:07.752Z,66.68
2017-01-20T10:19:08.241Z,67.06
2017-01-20T10:20:07.792Z,68.23
2017-01-20T10:21:08.346Z,66.89
2017-01-20T10:22:08.251Z,67.48
2017-01-20T10:23:07.880Z,67.74
2017-01-20T10:24:08.495Z,67.14
2017-01-20T10:25:07.957Z,66.68
2017-01-20T10:26:07.537Z,68.31
2017-01-20T10:27:08.038Z,68.06
2017-01-20T10:28:07.616Z,67.47
2017-01-20T10:29:08.150Z,66.49
2017-01-20T10:30:07.618Z,66.88
2017-01-20T10:31:08.176Z,67.50
2017-01-20T10:32:07.661Z,67.27
2017-01-20T10:33:08.482Z,67.14
2017-01-20T10:34:07.985Z,67.03
2017-01-20T10:35:07.431Z,67.07
2017-01-20T10:36:08.325Z,66.99
2017-01-20T10:37:07.799Z,67.35
2017-01-20T10:38:08.391Z,67.00
2017-01-20T10:39:07.950Z,67.55
2017-01-20T10:40:07.890Z,67.50
2017-01-20T10:41:08.491Z,67.17
2017-01-20T10:42:08.319Z,67.10
2017-01-20T10:43:07.990Z,66.97
2017-01-20T10:44:08.012Z,66.50
2017-01-20T10:45:07.521Z,66.22
2017-01-20T10:46:08.040Z,65.98
2017-01-20T10:47:07.870Z,66.28
2017-01-20T10:48:08.362Z,65.52
2017-01-20T10:49:07.931Z,66.11
2017-01-20T10:50:08.010Z,66.37
2017-01-20T10:51:07.550Z,66.23
2017-01-20T10:52:08.321Z,66.56
2017-01-20T10:53:07.912Z,66.43
2017-01-20T10:54:08.507Z,67.10
2017-01-20T10:55:08.066Z,67.18
2017-01-20T10:56:07.604Z,67.30
2017-01-20T10:57:08.379Z,66.93
2017-01-20T10:58:07.922Z,66.32
2017-01-20T10:59:07.451Z,65.90
2017-01-20T11:00:08.049Z,66.36
2017-01-20T11:01:07.540Z,65.63
2017-01-20T11:02:08.100Z,65.95
2017-01-20T11:03:07.536Z,65.47
2017-01-20T11:04:08.397Z,65.65
2017-01-20T11:05:08.260Z,66.14
2017-01-20T11:06:07.765Z,65.69
2017-01-20T11:07:07.885Z,65.12
2017-01-20T11:08:08.386Z,64.99
2017-01-20T11:09:07.886Z,65.75
2017-01-20T11:10:08.552Z,65.65
2017-01-20T11:11:08.179Z,65.42
2017-01-20T11:12:07.668Z,65.86
2017-01-20T11:13:08.116Z,65.64
2017-01-20T11:14:07.642Z,66.02
2017-01-20T11:15:08.463Z,65.63
2017-01-20T11:16:08.020Z,65.51
2017-01-20T11:17:07.723Z,65.78
2017-01-20T11:18:08.291Z,65.75
2017-01-20T11:19:07.832Z,65.05
2017-01-20T11:20:20.786Z,65.17
2017-01-20T11:21:08.342Z,65.60
2017-01-20T11:22:07.922Z,65.44
2017-01-20T11:23:07.530Z,65.92
2017-01-20T11:24:08.370Z,65.56
2017-01-20T11:25:07.861Z,65.17
2017-01-20T11:26:08.473Z,64.78
2017-01-20T11:27:07.961Z,65.07
2017-01-20T11:28:07.412Z,65.15
2017-01-20T11:29:07.963Z,65.36
2017-01-20T11:30:07.385Z,64.69
2017-01-20T11:31:07.877Z,64.48
2017-01-20T11:32:08.354Z,64.57
2017-01-20T11:33:07.856Z,64.72
2017-01-20T11:34:08.531Z,64.37
2017-01-20T11:35:08.104Z,64.17
2017-01-20T11:36:07.571Z,64.23
2017-01-20T11:37:08.384Z,64.38
2017-01-20T11:38:07.897Z,64.13
2017-01-20T11:39:08.646Z,63.60
2017-01-20T11:40:08.232Z,63.32
2017-01-20T11:41:07.960Z,64.31
2017-01-20T11:42:07.539Z,64.47
2017-01-20T11:43:08.301Z,63.97
2017-01-20T11:44:07.812Z,64.14
2017-01-20T11:45:08.257Z,64.49
2017-01-20T11:46:08.394Z,65.14
2017-01-20T11:47:07.991Z,64.43
2017-01-20T11:48:19.913Z,63.85
2017-01-20T11:49:08.433Z,64.04
2017-01-20T11:50:07.993Z,64.67
2017-01-20T11:51:07.444Z,64.84
2017-01-20T11:52:07.982Z,64.28
2017-01-20T11:53:07.444Z,64.40
2017-01-20T11:54:07.979Z,63.78
2017-01-20T11:55:07.822Z,63.73
2017-01-20T11:56:08.335Z,64.51
2017-01-20T11:57:08.226Z,64.64
2017-01-20T11:58:07.682Z,64.79
2017-01-20T11:59:08.248Z,64.28
2017-01-20T12:00:07.725Z,63.85
2017-01-20T12:01:08.993Z,64.15
2017-01-20T12:02:07.435Z,63.59
2017-01-20T12:03:07.968Z,63.53
2017-01-20T12:04:07.484Z,62.92
2017-01-20T12:05:08.334Z,63.01
2017-01-20T12:06:07.895Z,62.84
2017-01-20T12:07:08.436Z,62.84
2017-01-20T12:08:08.162Z,63.32
2017-01-20T12:09:07.706Z,63.74
2017-01-20T12:10:08.257Z,63.25
2017-01-20T12:11:07.955Z,62.97
2017-01-20T12:12:07.522Z,63.29
2017-01-20T12:13:08.035Z,63.36
2017-01-20T12:14:07.574Z,62.95
2017-01-20T12:15:08.095Z,63.31
2017-01-20T12:16:07.706Z,62.89
2017-01-20T12:17:08.705Z,63.21
2017-01-20T12:18:08.264Z,63.04
2017-01-20T12:19:07.850Z,63.21
2017-01-20T12:20:08.426Z,62.10
2017-01-20T12:21:08.048Z,61.82
2017-01-20T12:22:07.614Z,62.04
2017-01-20T12:23:08.106Z,62.48
2017-01-20T12:24:07.558Z,62.50
2017-01-20T12:25:08.105Z,62.66
2017-01-20T12:26:07.606Z,62.47
2017-01-20T12:27:08.401Z,62.33
2017-01-20T12:28:07.947Z,62.29
2017-01-20T12:29:07.623Z,62.44
2017-01-20T12:30:08.187Z,62.46
2017-01-20T12:31:07.869Z,62.11
2017-01-20T12:32:08.998Z,62.01
2017-01-20T12:33:07.617Z,61.88
2017-01-20T12:34:08.175Z,62.06
2017-01-20T12:35:07.697Z,62.14
2017-01-20T12:36:08.306Z,62.83
2017-01-20T12:37:07.882Z,62.76
2017-01-20T12:38:08.416Z,62.29
2017-01-20T12:39:08.008Z,62.19
2017-01-20T12:40:07.477Z,61.92
2017-01-20T12:41:08.046Z,62.18
2017-01-20T12:42:07.615Z,62.19
2017-01-20T12:43:08.221Z,62.43
2017-01-20T12:44:07.739Z,62.30
2017-01-20T12:45:08.235Z,62.00
2017-01-20T12:46:07.825Z,61.57
2017-01-20T12:47:08.334Z,61.91
2017-01-20T12:48:07.900Z,61.57
2017-01-20T12:49:08.746Z,61.91
2017-01-20T12:50:08.331Z,61.64
2017-01-20T12:51:08.259Z,61.63
2017-01-20T12:52:08.135Z,61.77
2017-01-20T12:53:07.986Z,61.71
2017-01-20T12:54:07.456Z,61.55
2017-01-20T12:55:08.106Z,61.53